Time;durP1;ratioP1;P1;durP2;ratioP2;P2;SDS_P1;SDS_P2;PMS_P1;PMS_P2;Temp;Humidity;BMP_temperature;BMP_pressure;BME280_temperature;BME280_humidity;BME280_pressure;Samples;Min_cycle;Max_cycle;Signal;HPM_P1;HPM_P2
2023/02/07 00:00:21;;;;;;;25.08;14.98;;;0.70;2201.60;;;;;;5050688;28;20036;-69
2023/02/07 00:02:48;;;;;;;107.45;54.88;;;0.70;2201.60;;;;;;5050445;28;20387;-60
2023/02/07 00:05:15;;;;;;;44.65;25.23;;;0.70;2201.60;;;;;;5050141;28;20037;-59
2023/02/07 00:07:41;;;;;;;42.22;26.92;;;0.90;2201.60;;;;;;5050665;28;20104;-70
2023/02/07 00:10:07;;;;;;;90.65;51.22;;;25.60;2201.60;;;;;;5050418;28;20036;-60
2023/02/07 00:12:33;;;;;;;27.40;16.60;;;25.60;2201.60;;;;;;5050087;28;20025;-70
2023/02/07 00:14:59;;;;;;;25.85;14.15;;;0.90;2201.60;;;;;;5050570;28;20143;-70
2023/02/07 00:17:27;;;;;;;28.23;16.17;;;0.70;2201.60;;;;;;5050168;28;20056;-70
2023/02/07 00:19:53;;;;;;;142.70;65.30;;;0.90;2201.60;;;;;;5050350;28;20032;-60
2023/02/07 00:22:18;;;;;;;44.35;23.52;;;0.90;2201.60;;;;;;5049943;28;20429;-67
2023/02/07 00:24:44;;;;;;;24.60;15.18;;;0.80;2201.60;;;;;;5049857;28;20136;-59
2023/02/07 00:27:10;;;;;;;23.98;15.00;;;0.60;2201.60;;;;;;5050189;28;20452;-59
2023/02/07 00:29:36;;;;;;;31.38;16.60;;;0.60;2201.60;;;;;;5049995;28;20021;-61
2023/02/07 00:32:02;;;;;;;37.13;20.35;;;0.80;2201.60;;;;;;5049815;28;20075;-59
2023/02/07 00:34:27;;;;;;;214.05;93.57;;;0.60;2201.60;;;;;;5047173;28;20032;-70
2023/02/07 00:36:53;;;;;;;41.08;21.50;;;0.80;2201.60;;;;;;5039558;28;20056;-70
2023/02/07 00:39:19;;;;;;;38.90;22.77;;;0.70;2201.60;;;;;;5038406;28;20025;-69
2023/02/07 00:41:45;;;;;;;33.38;17.33;;;0.80;2201.60;;;;;;5036623;28;20029;-65
2023/02/07 00:44:11;;;;;;;49.45;24.67;;;0.60;2201.60;;;;;;5039552;28;20029;-70
2023/02/07 00:46:37;;;;;;;49.03;24.05;;;0.80;2201.60;;;;;;5046178;28;20022;-59
2023/02/07 00:49:04;;;;;;;35.17;16.50;;;0.80;2201.60;;;;;;5048278;28;20025;-69
2023/02/07 00:51:30;;;;;;;38.22;19.92;;;0.60;2201.60;;;;;;5048414;28;20041;-71
2023/02/07 00:53:56;;;;;;;31.98;18.25;;;0.60;2201.60;;;;;;5045871;28;20033;-60
2023/02/07 00:56:25;;;;;;;97.30;40.03;;;0.80;2201.60;;;;;;5048190;28;20050;-60
2023/02/07 00:58:50;;;;;;;24.63;14.88;;;0.90;2201.60;;;;;;5048519;28;20108;-70
2023/02/07 01:01:16;;;;;;;28.23;16.17;;;0.70;2201.60;;;;;;5048769;28;20167;-61
2023/02/07 01:03:42;;;;;;;30.60;19.38;;;0.60;2201.60;;;;;;5050424;28;20051;-68
2023/02/07 01:06:09;;;;;;;46.88;23.83;;;0.50;2201.60;;;;;;5052539;28;20115;-69
2023/02/07 01:08:35;;;;;;;28.65;15.77;;;0.40;2201.60;;;;;;5052130;28;20025;-69
2023/02/07 01:11:07;;;;;;;34.00;17.17;;;0.30;2201.60;;;;;;5052044;28;20028;-69
2023/02/07 01:13:34;;;;;;;28.27;16.20;;;0.40;2201.60;;;;;;5051921;28;20021;-68
2023/02/07 01:15:59;;;;;;;87.20;41.83;;;0.40;2201.60;;;;;;5052089;28;20021;-71
2023/02/07 01:18:25;;;;;;;281.35;130.50;;;0.40;2201.60;;;;;;5051745;28;20017;-69
2023/02/07 01:20:51;;;;;;;63.55;32.83;;;0.50;2201.60;;;;;;5052259;28;20052;-66
2023/02/07 01:23:18;;;;;;;44.40;24.35;;;0.50;2201.60;;;;;;5049243;28;20019;-69
2023/02/07 01:25:45;;;;;;;94.40;43.13;;;0.40;2201.60;;;;;;5051622;28;20887;-69
2023/02/07 01:28:12;;;;;;;47.08;24.17;;;0.20;2201.60;;;;;;5051872;28;20021;-68
2023/02/07 01:30:42;;;;;;;49.80;25.50;;;0.20;2201.60;;;;;;5051876;28;20029;-68
2023/02/07 01:33:08;;;;;;;25.10;15.32;;;0.20;2201.60;;;;;;5051829;28;20028;-63
2023/02/07 01:35:35;;;;;;;30.13;15.80;;;0.10;2201.60;;;;;;5052409;28;20039;-69
2023/02/07 01:38:04;;;;;;;26.33;15.15;;;0.10;2201.60;;;;;;5052968;28;20029;-69
2023/02/07 01:40:30;;;;;;;410.58;169.85;;;0.20;2201.60;;;;;;5052760;28;20087;-68
2023/02/07 01:42:59;;;;;;;89.72;43.55;;;0.10;2201.60;;;;;;5052521;28;20033;-58
2023/02/07 01:45:37;;;;;;;46.63;19.58;;;0.00;2201.60;;;;;;5052816;28;20037;-69
2023/02/07 01:48:07;;;;;;;32.45;15.13;;;0.00;2201.60;;;;;;5052918;28;20025;-59
2023/02/07 01:50:34;;;;;;;111.90;54.03;;;0.00;2201.60;;;;;;5052444;28;20136;-61
2023/02/07 01:53:03;;;;;;;100.38;46.25;;;0.20;2201.60;;;;;;5052739;28;20447;-59
2023/02/07 01:55:32;;;;;;;31.45;17.45;;;0.20;2201.60;;;;;;5052906;28;20025;-61
2023/02/07 01:58:01;;;;;;;31.80;15.95;;;0.10;2201.60;;;;;;5052511;28;20021;-68
2023/02/07 02:00:28;;;;;;;66.45;29.45;;;0.10;2201.60;;;;;;5052709;28;20025;-68
2023/02/07 02:02:54;;;;;;;53.85;29.27;;;0.00;2201.60;;;;;;5052320;28;20078;-69
2023/02/07 02:05:21;;;;;;;164.07;83.70;;;0.00;2201.60;;;;;;5052600;28;20044;-70
2023/02/07 02:07:47;;;;;;;42.60;20.77;;;0.30;2201.60;;;;;;5052636;28;20055;-69
2023/02/07 02:10:28;;;;;;;31.05;18.10;;;0.10;2201.60;;;;;;5052222;28;20033;-59
2023/02/07 02:13:13;;;;;;;28.08;14.95;;;0.30;2201.60;;;;;;5051934;28;20057;-60
2023/02/07 02:15:51;;;;;;;52.15;27.98;;;0.20;2201.60;;;;;;5044833;28;20133;-70
2023/02/07 02:18:49;;;;;;;32.13;17.58;;;0.20;2201.60;;;;;;5048942;28;20476;-60
2023/02/07 02:21:44;;;;;;;28.70;14.23;;;0.30;2201.60;;;;;;5050802;28;20029;-70
2023/02/07 02:24:27;;;;;;;27.80;14.82;;;0.30;2201.60;;;;;;4989292;28;20038;-64
2023/02/07 02:27:28;;;;;;;26.02;14.52;;;0.20;2201.60;;;;;;4988820;28;20421;-60
2023/02/07 02:30:17;;;;;;;30.77;18.58;;;0.10;2201.60;;;;;;4988602;28;20041;-70
2023/02/07 02:33:20;;;;;;;24.08;14.60;;;0.00;2201.60;;;;;;4990547;28;20032;-59
2023/02/07 02:35:48;;;;;;;32.03;16.47;;;13.00;2201.60;;;;;;4990357;28;20038;-60
2023/02/07 02:38:34;;;;;;;42.17;21.38;;;13.10;2201.60;;;;;;4990306;28;20264;-64
2023/02/07 02:41:18;;;;;;;56.17;33.85;;;13.10;2201.60;;;;;;4990421;28;20058;-67
2023/02/07 02:43:56;;;;;;;36.03;19.40;;;13.00;2201.60;;;;;;4989873;28;20453;-59
2023/02/07 02:46:28;;;;;;;42.72;26.23;;;0.10;2201.60;;;;;;4989373;28;20034;-59
2023/02/07 02:48:56;;;;;;;26.13;17.15;;;0.10;2201.60;;;;;;4989462;28;20510;-60
2023/02/07 02:51:21;;;;;;;29.42;16.80;;;12.90;2201.60;;;;;;5020571;28;20040;-59
2023/02/07 02:53:55;;;;;;;28.88;14.75;;;12.90;2201.60;;;;;;5029332;28;20042;-66
2023/02/07 02:56:35;;;;;;;23.25;12.13;;;0.10;2201.60;;;;;;5029299;28;20028;-59
2023/02/07 02:59:24;;;;;;;32.42;18.00;;;12.90;2201.60;;;;;;5029050;28;20029;-59
2023/02/07 03:02:11;;;;;;;29.17;19.95;;;0.00;2201.60;;;;;;5060391;28;20052;-67
2023/02/07 03:04:53;;;;;;;39.75;22.25;;;12.90;2201.60;;;;;;5071328;28;20124;-59
2023/02/07 03:07:50;;;;;;;43.17;24.60;;;12.90;2201.60;;;;;;5071288;28;20027;-71
2023/02/07 03:10:33;;;;;;;51.28;26.13;;;12.90;2201.60;;;;;;5071220;28;20490;-59
2023/02/07 03:13:27;;;;;;;39.03;20.52;;;12.90;2201.60;;;;;;5071179;28;20025;-59
2023/02/07 03:16:13;;;;;;;40.80;22.13;;;13.00;2201.60;;;;;;5070976;28;20467;-59
2023/02/07 03:19:00;;;;;;;34.28;18.15;;;13.10;2201.60;;;;;;5071105;28;20581;-60
2023/02/07 03:21:41;;;;;;;27.42;15.75;;;13.10;2201.60;;;;;;5070713;28;20032;-60
2023/02/07 03:24:14;;;;;;;46.25;24.17;;;13.20;2201.60;;;;;;5070985;28;20044;-60
2023/02/07 03:26:43;;;;;;;31.33;16.38;;;13.10;2201.60;;;;;;5069971;28;20098;-59
2023/02/07 03:29:10;;;;;;;40.08;19.02;;;13.10;2201.60;;;;;;5070964;28;20030;-69
2023/02/07 03:31:39;;;;;;;34.22;19.77;;;13.20;2201.60;;;;;;5070859;28;20085;-60
2023/02/07 03:34:10;;;;;;;29.80;14.70;;;13.10;2201.60;;;;;;5070658;28;20364;-60
2023/02/07 03:37:07;;;;;;;32.05;14.95;;;13.10;2201.60;;;;;;5070868;28;20119;-59
2023/02/07 03:39:33;;;;;;;49.40;24.45;;;13.10;2201.60;;;;;;5070364;28;20417;-59
2023/02/07 03:42:03;;;;;;;34.95;16.10;;;13.20;2201.60;;;;;;5070701;28;20025;-59
2023/02/07 03:44:32;;;;;;;30.65;17.58;;;13.10;2201.60;;;;;;5070783;28;20432;-60
2023/02/07 03:46:58;;;;;;;35.05;19.48;;;13.20;2201.60;;;;;;5070673;28;20024;-60
2023/02/07 03:49:23;;;;;;;64.07;33.00;;;13.10;2201.60;;;;;;5070544;28;20379;-69
2023/02/07 03:51:50;;;;;;;44.85;24.00;;;13.10;2201.60;;;;;;5050578;28;20048;-59
2023/02/07 03:54:17;;;;;;;29.80;15.65;;;13.20;2201.60;;;;;;5050588;28;20029;-62
2023/02/07 03:56:43;;;;;;;23.58;13.98;;;13.10;2201.60;;;;;;5050355;28;20036;-70
2023/02/07 03:59:09;;;;;;;53.13;29.10;;;13.20;2201.60;;;;;;5050483;28;20025;-70
2023/02/07 04:01:40;;;;;;;59.03;32.72;;;13.40;2201.60;;;;;;5050409;28;20051;-70
2023/02/07 04:04:07;;;;;;;27.48;15.15;;;13.50;2201.60;;;;;;5050250;28;20041;-64
2023/02/07 04:06:33;;;;;;;54.92;27.90;;;13.40;2201.60;;;;;;5050539;28;20037;-60
2023/02/07 04:08:58;;;;;;;26.63;15.27;;;13.40;2201.60;;;;;;5050316;28;20021;-69
2023/02/07 04:11:24;;;;;;;37.13;20.88;;;13.60;2201.60;;;;;;5050256;28;20029;-61
2023/02/07 04:13:50;;;;;;;28.25;14.65;;;13.70;2201.60;;;;;;5050386;28;20108;-70
2023/02/07 04:16:15;;;;;;;32.10;17.42;;;38.40;2201.60;;;;;;5050239;28;20040;-68
2023/02/07 04:18:41;;;;;;;29.73;16.90;;;13.70;2201.60;;;;;;5050312;28;20035;-70
2023/02/07 04:21:07;;;;;;;25.73;14.82;;;38.40;2201.60;;;;;;5050270;28;20395;-59
2023/02/07 04:23:34;;;;;;;41.70;23.98;;;38.70;2201.60;;;;;;5049985;28;20033;-59
2023/02/07 04:26:00;;;;;;;28.17;16.08;;;38.70;2201.60;;;;;;5050395;28;20095;-58
2023/02/07 04:28:26;;;;;;;30.58;18.13;;;38.80;2201.60;;;;;;5049778;28;20021;-58
2023/02/07 04:30:52;;;;;;;35.08;19.13;;;38.80;2201.60;;;;;;5049878;28;20033;-63
2023/02/07 04:33:20;;;;;;;130.27;62.08;;;38.80;2201.60;;;;;;5050176;28;20068;-60
2023/02/07 04:35:56;;;;;;;46.67;22.00;;;39.00;2201.60;;;;;;5049916;28;20025;-60
2023/02/07 04:38:23;;;;;;;43.20;21.15;;;38.80;2201.60;;;;;;5052021;28;20035;-60
2023/02/07 04:40:49;;;;;;;36.53;18.33;;;38.80;2201.60;;;;;;5054056;28;20017;-59
2023/02/07 04:43:14;;;;;;;59.13;27.65;;;38.80;2201.60;;;;;;5053740;28;20436;-66
2023/02/07 04:45:40;;;;;;;35.92;18.63;;;38.70;2201.60;;;;;;5053971;28;20487;-59
2023/02/07 04:48:06;;;;;;;43.40;21.50;;;13.00;2201.60;;;;;;5053762;28;20029;-66
2023/02/07 04:50:32;;;;;;;69.07;33.08;;;38.60;2201.60;;;;;;5053458;28;20057;-60
2023/02/07 04:52:57;;;;;;;41.63;19.73;;;38.70;2201.60;;;;;;5053789;28;20064;-60
2023/02/07 04:55:23;;;;;;;27.17;14.32;;;38.80;2201.60;;;;;;5053562;28;20033;-59
2023/02/07 04:57:49;;;;;;;31.10;18.25;;;38.80;2201.60;;;;;;5053448;28;20021;-59
2023/02/07 05:00:14;;;;;;;31.92;16.48;;;38.90;2201.60;;;;;;5053604;28;20033;-59
2023/02/07 05:02:40;;;;;;;32.92;17.25;;;39.00;2201.60;;;;;;5053871;28;20471;-59
2023/02/07 05:05:07;;;;;;;31.48;17.30;;;39.10;2201.60;;;;;;5053318;28;20045;-59
2023/02/07 05:07:32;;;;;;;28.65;16.20;;;39.20;2201.60;;;;;;5053545;28;20025;-59
2023/02/07 05:09:58;;;;;;;27.92;16.13;;;39.20;2201.60;;;;;;5053519;28;20044;-59
2023/02/07 05:12:24;;;;;;;29.48;16.85;;;39.30;2201.60;;;;;;5053383;28;20112;-59
2023/02/07 05:14:49;;;;;;;32.78;16.55;;;39.20;2201.60;;;;;;5053661;28;20107;-59
2023/02/07 05:17:15;;;;;;;33.17;17.92;;;64.00;2201.60;;;;;;5053171;28;20406;-59
2023/02/07 05:19:41;;;;;;;32.33;15.55;;;64.00;2201.60;;;;;;5053288;28;20029;-59
2023/02/07 05:22:07;;;;;;;29.38;15.77;;;64.10;2201.60;;;;;;5053090;28;20029;-59
2023/02/07 05:24:32;;;;;;;24.80;13.43;;;64.10;2201.60;;;;;;5052941;28;20041;-59
2023/02/07 05:26:58;;;;;;;32.05;17.83;;;64.30;2201.60;;;;;;5053342;28;20057;-72
2023/02/07 05:29:24;;;;;;;41.53;26.05;;;64.30;2201.60;;;;;;5053015;28;20025;-59
2023/02/07 05:34:34;;;;;;;35.78;19.77;;;64.30;2201.60;;;;;;5053197;28;20066;-69
2023/02/07 05:37:00;;;;;;;28.52;15.18;;;64.30;2201.60;;;;;;5052929;28;20479;-59
2023/02/07 05:39:26;;;;;;;50.80;27.00;;;64.30;2201.60;;;;;;5052833;28;20041;-69
2023/02/07 05:41:52;;;;;;;28.10;14.45;;;64.30;2201.60;;;;;;5052526;28;20036;-67
2023/02/07 05:44:18;;;;;;;29.58;14.27;;;64.30;2201.60;;;;;;5052920;28;20067;-70
2023/02/07 05:46:44;;;;;;;28.45;14.73;;;64.30;2201.60;;;;;;5052772;28;20029;-69
2023/02/07 05:49:09;;;;;;;37.45;18.77;;;64.30;2201.60;;;;;;5051775;28;20032;-69
2023/02/07 05:51:35;;;;;;;28.80;15.07;;;64.20;2201.60;;;;;;5052233;28;20075;-57
2023/02/07 05:54:01;;;;;;;30.20;15.15;;;64.10;2201.60;;;;;;5052570;28;20056;-59
2023/02/07 05:56:26;;;;;;;25.70;12.82;;;64.10;2201.60;;;;;;5034568;28;20033;-60
2023/02/07 05:58:52;;;;;;;23.30;12.82;;;64.00;2201.60;;;;;;5052157;28;20477;-69
2023/02/07 06:01:18;;;;;;;27.55;13.00;;;64.00;2201.60;;;;;;5052624;28;20033;-59
2023/02/07 06:03:44;;;;;;;35.33;18.02;;;39.20;2201.60;;;;;;5052441;28;20032;-59
2023/02/07 06:06:09;;;;;;;32.03;18.27;;;39.10;2201.60;;;;;;5052350;28;20071;-59
2023/02/07 06:08:35;;;;;;;32.10;14.60;;;39.30;2201.60;;;;;;5052518;28;20036;-58
2023/02/07 06:11:01;;;;;;;36.10;20.55;;;39.20;2201.60;;;;;;5052275;28;20443;-60
2023/02/07 06:13:27;;;;;;;32.85;18.88;;;39.10;2201.60;;;;;;5052192;28;20490;-60
2023/02/07 06:15:52;;;;;;;31.95;16.13;;;39.20;2201.60;;;;;;5052098;28;20036;-60
2023/02/07 06:18:18;;;;;;;30.67;17.00;;;39.30;2201.60;;;;;;5052125;28;20032;-59
2023/02/07 06:20:44;;;;;;;36.88;17.67;;;39.20;2201.60;;;;;;5051887;28;20063;-71
2023/02/07 06:23:09;;;;;;;29.48;16.70;;;39.10;2201.60;;;;;;5052002;28;20041;-59
2023/02/07 06:25:35;;;;;;;54.00;41.35;;;39.10;2201.60;;;;;;5051738;28;20422;-68
2023/02/07 06:28:01;;;;;;;30.65;15.60;;;39.10;2201.60;;;;;;5051704;28;20029;-70
2023/02/07 06:30:27;;;;;;;30.55;16.13;;;39.20;2201.60;;;;;;5051938;28;20057;-60
2023/02/07 06:32:52;;;;;;;36.83;16.50;;;39.30;2201.60;;;;;;5035759;28;20025;-67
2023/02/07 06:35:18;;;;;;;34.13;16.27;;;39.30;2201.60;;;;;;5031894;28;20030;-60
2023/02/07 06:37:44;;;;;;;29.15;16.05;;;39.20;2201.60;;;;;;5032034;28;20075;-59
2023/02/07 06:40:10;;;;;;;37.38;17.67;;;39.20;2201.60;;;;;;5031918;28;20386;-58
2023/02/07 06:42:35;;;;;;;30.80;15.43;;;39.20;2201.60;;;;;;5031467;28;20025;-59
2023/02/07 06:45:01;;;;;;;57.35;29.92;;;39.30;2201.60;;;;;;5031396;28;20037;-60
2023/02/07 06:47:27;;;;;;;50.72;26.75;;;39.20;2201.60;;;;;;5031734;28;20026;-60
2023/02/07 06:49:52;;;;;;;28.23;14.73;;;39.20;2201.60;;;;;;5030987;28;20045;-67
2023/02/07 06:52:18;;;;;;;23.92;14.05;;;39.10;2201.60;;;;;;5031417;28;20033;-58
2023/02/07 06:54:44;;;;;;;30.67;16.80;;;39.10;2201.60;;;;;;5031320;28;20030;-64
2023/02/07 06:57:10;;;;;;;53.97;24.20;;;39.20;2201.60;;;;;;5031752;28;20025;-59
2023/02/07 06:59:35;;;;;;;67.53;40.33;;;38.90;2201.60;;;;;;5031298;28;20515;-61
2023/02/07 07:02:02;;;;;;;28.88;17.15;;;39.00;2201.60;;;;;;5031030;28;20113;-61
2023/02/07 07:04:28;;;;;;;117.05;57.63;;;39.00;2201.60;;;;;;5031374;28;20033;-61
2023/02/07 07:06:54;;;;;;;29.67;17.90;;;38.90;2201.60;;;;;;5031286;28;20045;-61
2023/02/07 07:09:19;;;;;;;34.60;21.95;;;38.90;2201.60;;;;;;5031351;28;20506;-61
2023/02/07 07:11:45;;;;;;;30.92;16.20;;;38.90;2201.60;;;;;;5031304;28;20078;-63
2023/02/07 07:14:11;;;;;;;30.23;18.08;;;38.80;2201.60;;;;;;5030803;28;20518;-62
2023/02/07 07:16:39;;;;;;;41.88;26.23;;;38.70;2201.60;;;;;;5031341;28;20021;-62
2023/02/07 07:19:05;;;;;;;32.25;17.77;;;38.60;2201.60;;;;;;5031033;28;20059;-61
2023/02/07 07:21:31;;;;;;;42.72;25.35;;;38.40;2201.60;;;;;;5030757;28;20025;-62
2023/02/07 07:23:57;;;;;;;35.05;17.48;;;38.50;2201.60;;;;;;5031166;28;20052;-62
2023/02/07 07:26:23;;;;;;;49.05;24.60;;;38.40;2201.60;;;;;;5031084;28;20040;-62
2023/02/07 07:28:49;;;;;;;30.75;16.90;;;13.70;2201.60;;;;;;5030955;28;20383;-61
2023/02/07 07:31:15;;;;;;;48.40;31.90;;;13.70;2201.60;;;;;;5030880;28;20033;-61
2023/02/07 07:33:41;;;;;;;34.47;17.58;;;13.60;2201.60;;;;;;5031019;28;20037;-62
2023/02/07 07:36:07;;;;;;;37.72;20.33;;;13.60;2201.60;;;;;;5030983;28;20361;-60
2023/02/07 07:38:33;;;;;;;33.38;17.45;;;13.50;2201.60;;;;;;5030501;28;20084;-61
2023/02/07 07:40:59;;;;;;;27.20;16.23;;;13.40;2201.60;;;;;;5031038;28;20029;-63
2023/02/07 07:43:26;;;;;;;23.35;14.25;;;13.40;2201.60;;;;;;5043328;28;20032;-61
2023/02/07 07:45:56;;;;;;;27.13;15.38;;;13.30;2201.60;;;;;;5050292;28;20037;-61
2023/02/07 07:48:23;;;;;;;27.33;13.93;;;13.30;2201.60;;;;;;5050610;28;20463;-62
2023/02/07 07:50:49;;;;;;;31.75;15.25;;;13.30;2201.60;;;;;;5050434;28;20054;-61
2023/02/07 07:53:17;;;;;;;27.70;16.63;;;13.20;2201.60;;;;;;5050199;28;20071;-63
2023/02/07 07:55:51;;;;;;;37.65;14.82;;;0.40;2201.60;;;;;;5050245;28;20444;-62
2023/02/07 07:58:17;;;;;;;28.73;16.55;;;76.90;2227.20;;;;;;5050382;28;20033;-62
2023/02/07 08:00:43;;;;;;;32.00;19.45;;;102.70;2227.20;;;;;;5050327;28;20104;-63
2023/02/07 08:03:09;;;;;;;30.17;16.38;;;102.40;2227.20;;;;;;5050432;28;20056;-63
2023/02/07 08:05:35;;;;;;;26.98;15.50;;;77.30;2227.20;;;;;;5050103;28;20029;-61
2023/02/07 08:08:01;;;;;;;37.53;23.08;;;77.60;2227.20;;;;;;5050249;28;20031;-63
2023/02/07 08:10:27;;;;;;;28.55;18.50;;;128.80;2099.20;;;;;;5050454;28;20055;-61
2023/02/07 08:12:52;;;;;;;31.15;20.65;;;179.90;1894.40;;;;;;5053003;28;20056;-62
2023/02/07 08:15:18;;;;;;;35.90;24.38;;;205.70;1817.60;;;;;;5056753;28;20053;-62
2023/02/07 08:17:44;;;;;;;39.45;26.27;;;230.60;1715.20;;;;;;5056830;28;20075;-63
2023/02/07 08:20:11;;;;;;;28.08;19.52;;;205.70;1715.20;;;;;;5056821;28;20383;-61
2023/02/07 08:22:37;;;;;;;28.65;21.70;;;205.60;1715.20;;;;;;5056751;28;20467;-61
2023/02/07 08:25:03;;;;;;;25.42;19.05;;;231.00;1638.40;;;;;;5056603;28;20556;-63
2023/02/07 08:27:29;;;;;;;22.98;16.58;;;205.50;1664.00;;;;;;5055227;28;20032;-63
2023/02/07 08:29:55;;;;;;;23.13;17.35;;;205.60;1689.60;;;;;;5053551;28;20025;-62
2023/02/07 08:32:20;;;;;;;21.70;16.35;;;205.00;1715.20;;;;;;5054637;28;20028;-64
2023/02/07 08:34:46;;;;;;;21.77;16.75;;;205.50;1689.60;;;;;;5054803;28;20024;-62
2023/02/07 08:37:12;;;;;;;39.10;25.85;;;230.60;1638.40;;;;;;5054433;28;20032;-64
2023/02/07 08:39:37;;;;;;;26.73;19.33;;;256.30;1561.60;;;;;;5054912;28;20079;-63
2023/02/07 08:42:06;;;;;;;42.70;31.23;;;256.90;1536.00;;;;;;5054149;28;20436;-62
2023/02/07 08:44:33;;;;;;;84.13;64.45;;;282.20;1510.40;;;;;;5054309;28;20060;-63
2023/02/07 08:46:59;;;;;;;29.15;20.60;;;308.10;1433.60;;;;;;5055241;28;20017;-64
2023/02/07 08:49:25;;;;;;;37.97;28.30;;;332.90;1433.60;;;;;;5055758;28;20025;-62
2023/02/07 08:51:51;;;;;;;24.80;22.05;;;333.10;1408.00;;;;;;5054823;28;20060;-64
2023/02/07 08:54:17;;;;;;;33.35;27.45;;;307.70;1459.20;;;;;;5055308;28;20029;-63
2023/02/07 08:56:43;;;;;;;34.42;27.90;;;307.90;1408.00;;;;;;5055194;28;20028;-62
2023/02/07 08:59:09;;;;;;;25.80;22.55;;;307.60;1433.60;;;;;;5055006;28;20391;-61
2023/02/07 09:01:35;;;;;;;21.17;17.27;;;307.60;1433.60;;;;;;5055043;28;20028;-63
2023/02/07 09:04:01;;;;;;;30.92;23.45;;;308.00;1382.40;;;;;;5055073;28;20020;-62
2023/02/07 09:06:27;;;;;;;19.17;16.25;;;282.40;1408.00;;;;;;5052573;28;20035;-63
2023/02/07 09:08:53;;;;;;;21.85;16.80;;;307.80;1433.60;;;;;;5052379;28;20021;-63
2023/02/07 09:11:19;;;;;;;19.33;15.25;;;307.50;1433.60;;;;;;5053047;28;20479;-63
2023/02/07 09:13:45;;;;;;;20.25;17.17;;;307.80;1408.00;;;;;;5052792;28;20036;-61
2023/02/07 09:16:12;;;;;;;22.63;19.83;;;332.90;1433.60;;;;;;5053171;28;20059;-62
2023/02/07 09:18:38;;;;;;;23.08;18.17;;;308.10;1382.40;;;;;;5052730;28;20471;-62
2023/02/07 09:21:05;;;;;;;23.17;17.58;;;307.50;1433.60;;;;;;5034779;28;20017;-62
2023/02/07 09:23:32;;;;;;;22.13;17.35;;;307.60;1408.00;;;;;;5052165;28;20044;-62
2023/02/07 09:26:04;;;;;;;24.27;19.60;;;256.40;1459.20;;;;;;5049737;28;20039;-63
2023/02/07 09:28:30;;;;;;;19.05;15.98;;;256.60;1459.20;;;;;;5049394;28;20079;-61
2023/02/07 09:30:55;;;;;;;20.98;15.40;;;256.30;1484.80;;;;;;5049559;28;20052;-61
2023/02/07 09:33:24;;;;;;;25.50;18.58;;;256.20;1484.80;;;;;;5049293;28;20048;-62
2023/02/07 09:35:50;;;;;;;27.35;21.92;;;281.90;1459.20;;;;;;5049500;28;20111;-63
2023/02/07 09:38:18;;;;;;;19.95;15.77;;;281.80;1459.20;;;;;;5049422;28;20067;-63
2023/02/07 09:40:46;;;;;;;20.30;16.60;;;256.90;1433.60;;;;;;5049339;28;20060;-61
2023/02/07 09:43:31;;;;;;;26.98;18.42;;;256.80;1459.20;;;;;;5046459;28;20047;-62
2023/02/07 09:46:02;;;;;;;25.55;20.00;;;256.20;1484.80;;;;;;5047026;28;20029;-61
2023/02/07 09:48:51;;;;;;;25.90;18.23;;;256.10;1510.40;;;;;;5049268;28;20429;-63
2023/02/07 09:51:22;;;;;;;21.45;15.40;;;230.50;1561.60;;;;;;5047190;28;20067;-61
2023/02/07 09:53:57;;;;;;;20.70;15.80;;;180.00;1638.40;;;;;;5049437;28;20391;-63
2023/02/07 09:56:26;;;;;;;18.10;12.93;;;179.30;1715.20;;;;;;5049096;28;20497;-62
2023/02/07 09:59:08;;;;;;;20.73;14.05;;;153.80;1766.40;;;;;;5045929;28;20032;-62
2023/02/07 10:01:43;;;;;;;17.27;12.65;;;153.70;1817.60;;;;;;5029043;28;20100;-61
2023/02/07 10:04:19;;;;;;;19.15;12.85;;;128.10;1868.80;;;;;;5049248;28;20063;-63
2023/02/07 10:06:49;;;;;;;18.75;12.30;;;128.30;1868.80;;;;;;5048964;28;20025;-63
2023/02/07 10:09:20;;;;;;;18.45;12.50;;;128.60;1843.20;;;;;;5048844;28;20029;-63
2023/02/07 10:11:57;;;;;;;18.70;12.52;;;103.30;1868.80;;;;;;5049605;28;20021;-63
2023/02/07 10:15:00;;;;;;;18.25;12.48;;;128.10;1894.40;;;;;;5049890;28;20028;-61
2023/02/07 10:17:39;;;;;;;24.50;16.00;;;128.40;1894.40;;;;;;5049861;28;20021;-61
2023/02/07 10:20:10;;;;;;;19.67;13.15;;;128.90;1843.20;;;;;;5049920;28;20033;-64
2023/02/07 10:23:03;;;;;;;19.33;13.13;;;153.70;1817.60;;;;;;5049667;28;20104;-62
2023/02/07 10:26:21;;;;;;;20.35;12.55;;;153.70;1792.00;;;;;;5026264;28;20395;-64
2023/02/07 10:29:09;;;;;;;20.65;14.82;;;154.10;1792.00;;;;;;5049851;28;20040;-63
2023/02/07 10:31:39;;;;;;;20.08;12.98;;;153.70;1792.00;;;;;;5049799;28;20360;-62
2023/02/07 10:34:16;;;;;;;15.43;11.30;;;153.60;1817.60;;;;;;5049834;28;20032;-61
2023/02/07 10:36:46;;;;;;;17.13;12.00;;;128.50;1843.20;;;;;;5048753;28;20025;-61
2023/02/07 10:39:37;;;;;;;19.50;13.18;;;128.80;1817.60;;;;;;5049583;28;20546;-63
2023/02/07 10:42:04;;;;;;;15.32;12.43;;;153.70;1817.60;;;;;;5049643;28;20033;-61
2023/02/07 10:44:30;;;;;;;20.30;12.90;;;128.90;1817.60;;;;;;5049932;28;20032;-61
2023/02/07 10:47:03;;;;;;;22.45;14.40;;;128.90;1817.60;;;;;;5049986;28;20631;-62
2023/02/07 10:49:36;;;;;;;34.90;20.60;;;128.90;1868.80;;;;;;5049121;28;20031;-61
2023/02/07 10:52:23;;;;;;;37.40;20.55;;;153.70;1843.20;;;;;;5069273;28;20437;-61
2023/02/07 10:54:57;;;;;;;21.80;14.60;;;128.90;1843.20;;;;;;5066353;28;20020;-62
2023/02/07 10:57:25;;;;;;;27.63;16.38;;;153.60;1843.20;;;;;;5068950;28;20024;-62
2023/02/07 11:00:21;;;;;;;22.55;15.20;;;128.90;1817.60;;;;;;5068881;28;20031;-63
2023/02/07 11:02:50;;;;;;;21.35;13.55;;;128.70;1817.60;;;;;;5068090;28;20032;-63
2023/02/07 11:05:16;;;;;;;20.17;13.52;;;128.50;1843.20;;;;;;5068608;28;20047;-63
2023/02/07 11:08:03;;;;;;;15.55;11.30;;;128.90;1843.20;;;;;;5068865;28;20408;-62
2023/02/07 11:10:38;;;;;;;27.35;17.92;;;128.70;1868.80;;;;;;5069291;28;20021;-61
2023/02/07 11:13:11;;;;;;;17.40;11.40;;;128.60;1868.80;;;;;;5068773;28;20028;-61
2023/02/07 11:15:55;;;;;;;17.80;12.52;;;128.10;1920.00;;;;;;5068709;28;20054;-62
2023/02/07 11:18:40;;;;;;;18.20;11.88;;;103.30;1894.40;;;;;;5068963;28;20024;-59
2023/02/07 11:21:26;;;;;;;15.50;10.70;;;103.20;1894.40;;;;;;5068691;28;20074;-63
2023/02/07 11:23:55;;;;;;;17.65;12.00;;;103.10;1894.40;;;;;;5068599;28;20028;-60
2023/02/07 11:26:22;;;;;;;20.08;13.63;;;103.30;1894.40;;;;;;5068900;28;20037;-63
2023/02/07 11:29:10;;;;;;;16.17;11.00;;;103.10;1894.40;;;;;;5068151;28;20107;-63
2023/02/07 11:31:37;;;;;;;20.23;12.13;;;102.90;1920.00;;;;;;5068576;28;20021;-62
2023/02/07 11:34:27;;;;;;;21.75;13.30;;;102.80;1920.00;;;;;;5068853;28;20048;-61
2023/02/07 11:36:53;;;;;;;19.17;13.10;;;102.90;1920.00;;;;;;5068061;28;20029;-62
2023/02/07 11:39:21;;;;;;;20.00;13.07;;;102.90;1945.60;;;;;;5068090;28;20032;-62
2023/02/07 11:41:58;;;;;;;25.13;15.75;;;102.90;1945.60;;;;;;5067717;28;20070;-62
2023/02/07 11:44:25;;;;;;;26.98;16.55;;;102.90;1945.60;;;;;;5067882;28;20834;-62
2023/02/07 11:46:56;;;;;;;20.45;12.82;;;103.00;1920.00;;;;;;5067470;28;20023;-61
2023/02/07 11:49:40;;;;;;;26.50;13.73;;;102.90;1920.00;;;;;;5068332;28;20696;-60
2023/02/07 11:52:07;;;;;;;24.42;14.07;;;103.00;1894.40;;;;;;5048318;28;20041;-61
2023/02/07 11:54:33;;;;;;;27.98;15.60;;;103.00;1894.40;;;;;;5048121;28;20025;-63
2023/02/07 11:57:05;;;;;;;19.20;11.73;;;128.10;1894.40;;;;;;5047375;28;20120;-60
2023/02/07 11:59:34;;;;;;;16.65;9.88;;;128.00;1894.40;;;;;;5046745;28;20024;-61
2023/02/07 12:02:29;;;;;;;20.38;14.23;;;128.40;1868.80;;;;;;5047103;28;20242;-62
2023/02/07 12:05:06;;;;;;;48.70;34.78;;;128.60;1868.80;;;;;;5043491;28;20510;-63
2023/02/07 12:07:38;;;;;;;46.42;32.30;;;128.50;1868.80;;;;;;5046929;28;20025;-62
2023/02/07 12:10:13;;;;;;;63.55;42.50;;;128.30;1894.40;;;;;;5046594;28;20494;-61
2023/02/07 12:12:52;;;;;;;39.00;29.60;;;128.00;1894.40;;;;;;5036573;28;20056;-63
2023/02/07 12:15:49;;;;;;;30.60;20.95;;;128.00;1868.80;;;;;;5046794;28;20041;-61
2023/02/07 12:18:30;;;;;;;24.70;16.27;;;103.30;1843.20;;;;;;4956941;28;20389;-61
2023/02/07 12:21:34;;;;;;;27.20;16.73;;;128.00;1894.40;;;;;;4957275;28;20114;-62
2023/02/07 12:24:09;;;;;;;73.28;43.00;;;128.10;1843.20;;;;;;4957111;28;20031;-61